Terminal Aerodrome Forecast
Issued by NWS

Home | Current Version | Previous Version | Graphics & Text | Print | Product List | Glossary On
Versions: 1 2 3 4 5 6 7 8 9 10 11
655
FTUS42 KMHX 042338
TAFISO
TAF
KISO 042338Z 0500/0524 35009G15KT 5SM -RA OVC007
     FM050600 34015G22KT 5SM -RA OVC007
     FM051200 34015G22KT P6SM SCT007 OVC015
     FM051500 35015G20KT P6SM SCT035
      AMD LTD TO CLD VIS AND WIND=

USA.gov is the U.S. government's official web portal to all federal, state and local government web resources and services.